CFG1603 LEPA-EDDG
Flight info
| Callsign | CFG1603 |
|---|---|
| Flight time | 2h 2m |
| Altitude | 36000 |
| Route | MEROS N853 LUMAS DCT MAXIR DCT LUSOL DCT BODRU DCT OKTET DCT IRMAR DCT KINES DCT VANAS DCT MOBLO DCT UBIMA DCT GILIR DCT PENDU DCT IXILU DCT EPL DCT ROUSY DCT DIK/N0443F370 T856 DEPOK/N0396F230 T856 QATJA N853 HMM HMM1B |
| Aircraft | A320/M-SDGHIJ1RWXY/LB1 |
Departure
| Time | 2026-05-04 13:43 |
|---|---|
| Airport | Palma de Mallorca Airport (LEPA) |
Arrival
| Time | 2026-05-04 15:45 |
|---|---|
| Airport | Münster Osnabrück Airport (EDDG) |
| Time | Latitude | Longitude | Altitude | Speed | Heading |
|---|---|---|---|---|---|
| 2026-05-04 13:03 | 39.54901 | 2.73799 | 38 ft | 0 kts | 249° |
| 2026-05-04 13:05 | 39.54851 | 2.73838 | 38 ft | 0 kts | 268° |
| 2026-05-04 13:34 | 39.54852 | 2.73851 | 38 ft | 4 kts | 268° |
| 2026-05-04 13:34 | 39.54852 | 2.73886 | 38 ft | 4 kts | 270° |
| 2026-05-04 13:35 | 39.54851 | 2.73922 | 38 ft | 4 kts | 273° |
| 2026-05-04 13:35 | 39.54843 | 2.73990 | 38 ft | 4 kts | 295° |
| 2026-05-04 13:35 | 39.54831 | 2.74011 | 37 ft | 1 kts | 329° |
| 2026-05-04 13:36 | 39.54828 | 2.74014 | 37 ft | 0 kts | 329° |
| 2026-05-04 13:38 | 39.54874 | 2.73979 | 38 ft | 11 kts | 329° |
| 2026-05-04 13:38 | 39.54933 | 2.73980 | 38 ft | 8 kts | 43° |
| 2026-05-04 13:38 | 39.54979 | 2.73999 | 38 ft | 8 kts | 348° |
| 2026-05-04 13:38 | 39.55044 | 2.73952 | 38 ft | 14 kts | 328° |
| 2026-05-04 13:39 | 39.55142 | 2.73874 | 38 ft | 19 kts | 329° |
| 2026-05-04 13:39 | 39.55272 | 2.73773 | 38 ft | 23 kts | 328° |
| 2026-05-04 13:39 | 39.55411 | 2.73662 | 38 ft | 24 kts | 328° |
| 2026-05-04 13:39 | 39.55556 | 2.73545 | 38 ft | 24 kts | 328° |
| 2026-05-04 13:40 | 39.55680 | 2.73551 | 38 ft | 20 kts | 54° |
| 2026-05-04 13:40 | 39.55749 | 2.73693 | 38 ft | 18 kts | 58° |
| 2026-05-04 13:40 | 39.55811 | 2.73824 | 37 ft | 16 kts | 58° |
| 2026-05-04 13:40 | 39.55866 | 2.73941 | 38 ft | 14 kts | 59° |
| 2026-05-04 13:41 | 39.55930 | 2.74081 | 38 ft | 23 kts | 59° |
| 2026-05-04 13:41 | 39.56026 | 2.74283 | 38 ft | 27 kts | 58° |
| 2026-05-04 13:41 | 39.56142 | 2.74449 | 38 ft | 24 kts | 5° |
| 2026-05-04 13:42 | 39.56166 | 2.74139 | 37 ft | 35 kts | 239° |
| 2026-05-04 13:42 | 39.55916 | 2.73613 | 38 ft | 99 kts | 239° |
| 2026-05-04 13:42 | 39.55467 | 2.72662 | 38 ft | 146 kts | 238° |
| 2026-05-04 13:42 | 39.54892 | 2.71432 | 336 ft | 164 kts | 237° |
| 2026-05-04 13:43 | 39.54315 | 2.70160 | 1020 ft | 166 kts | 239° |
| 2026-05-04 13:43 | 39.53714 | 2.68887 | 1751 ft | 165 kts | 238° |
| 2026-05-04 13:43 | 39.53081 | 2.67562 | 2137 ft | 182 kts | 239° |
| 2026-05-04 13:43 | 39.52380 | 2.66089 | 2489 ft | 199 kts | 238° |
| 2026-05-04 13:44 | 39.51638 | 2.64528 | 3057 ft | 205 kts | 238° |
| 2026-05-04 13:44 | 39.50884 | 2.62948 | 3816 ft | 205 kts | 239° |
| 2026-05-04 13:44 | 39.50114 | 2.61386 | 4548 ft | 207 kts | 230° |
| 2026-05-04 13:44 | 39.48937 | 2.60175 | 4875 ft | 230 kts | 208° |
| 2026-05-04 13:45 | 39.47437 | 2.59204 | 5298 ft | 248 kts | 207° |
| 2026-05-04 13:45 | 39.45748 | 2.58595 | 6025 ft | 258 kts | 184° |
| 2026-05-04 13:45 | 39.43967 | 2.59052 | 6779 ft | 270 kts | 157° |
| 2026-05-04 13:45 | 39.42526 | 2.60625 | 7514 ft | 284 kts | 128° |
| 2026-05-04 13:46 | 39.41860 | 2.63079 | 8237 ft | 299 kts | 97° |
| 2026-05-04 13:46 | 39.41834 | 2.65805 | 9010 ft | 305 kts | 92° |
| 2026-05-04 13:46 | 39.41883 | 2.68564 | 9745 ft | 309 kts | 91° |
| 2026-05-04 13:46 | 39.41953 | 2.71373 | 10325 ft | 320 kts | 91° |
| 2026-05-04 13:47 | 39.42025 | 2.74356 | 10624 ft | 344 kts | 91° |
| 2026-05-04 13:47 | 39.42091 | 2.77549 | 10942 ft | 364 kts | 91° |
| 2026-05-04 13:47 | 39.42152 | 2.80827 | 11557 ft | 372 kts | 91° |
| 2026-05-04 13:47 | 39.42211 | 2.84231 | 12308 ft | 377 kts | 91° |
| 2026-05-04 13:48 | 39.42264 | 2.87645 | 13044 ft | 382 kts | 91° |
| 2026-05-04 13:48 | 39.42313 | 2.91070 | 13705 ft | 386 kts | 91° |
| 2026-05-04 13:48 | 39.42359 | 2.94560 | 14271 ft | 390 kts | 91° |
| 2026-05-04 13:48 | 39.42401 | 2.98088 | 14803 ft | 395 kts | 91° |
| 2026-05-04 13:49 | 39.42445 | 3.01661 | 15334 ft | 399 kts | 91° |
| 2026-05-04 13:49 | 39.42491 | 3.05275 | 15859 ft | 404 kts | 91° |
| 2026-05-04 13:49 | 39.42538 | 3.08901 | 16336 ft | 410 kts | 91° |
| 2026-05-04 13:49 | 39.42584 | 3.12624 | 16829 ft | 415 kts | 91° |
| 2026-05-04 13:50 | 39.42628 | 3.16383 | 17346 ft | 420 kts | 91° |
| 2026-05-04 13:50 | 39.42678 | 3.20180 | 17857 ft | 425 kts | 89° |
| 2026-05-04 13:50 | 39.43042 | 3.24005 | 18335 ft | 432 kts | 78° |
| 2026-05-04 13:50 | 39.43923 | 3.27726 | 18770 ft | 436 kts | 67° |
| 2026-05-04 13:51 | 39.45319 | 3.31228 | 19218 ft | 438 kts | 54° |
| 2026-05-04 13:51 | 39.47316 | 3.34206 | 19659 ft | 438 kts | 38° |
| 2026-05-04 13:51 | 39.49706 | 3.36659 | 20107 ft | 441 kts | 34° |
| 2026-05-04 13:51 | 39.52164 | 3.39089 | 20559 ft | 445 kts | 34° |
| 2026-05-04 13:52 | 39.57114 | 3.43914 | 21498 ft | 451 kts | 33° |
| 2026-05-04 13:52 | 39.59634 | 3.46368 | 21929 ft | 455 kts | 34° |
| 2026-05-04 13:52 | 39.62183 | 3.48860 | 22340 ft | 459 kts | 34° |
| 2026-05-04 13:53 | 39.64745 | 3.51377 | 22763 ft | 463 kts | 34° |
| 2026-05-04 13:53 | 39.67322 | 3.53918 | 23161 ft | 467 kts | 34° |
| 2026-05-04 13:53 | 39.69890 | 3.56453 | 23550 ft | 470 kts | 34° |
| 2026-05-04 13:54 | 39.75135 | 3.61640 | 24239 ft | 477 kts | 34° |
| 2026-05-04 13:54 | 39.77785 | 3.64262 | 24567 ft | 479 kts | 34° |
| 2026-05-04 13:54 | 39.83125 | 3.69547 | 25176 ft | 485 kts | 34° |
| 2026-05-04 13:55 | 39.85829 | 3.72222 | 25483 ft | 488 kts | 34° |
| 2026-05-04 13:55 | 39.91225 | 3.77575 | 26079 ft | 493 kts | 35° |
| 2026-05-04 13:55 | 39.93970 | 3.80306 | 26379 ft | 496 kts | 35° |
| 2026-05-04 13:56 | 39.96718 | 3.83042 | 26687 ft | 498 kts | 34° |
| 2026-05-04 13:56 | 39.99479 | 3.85793 | 26983 ft | 501 kts | 35° |
| 2026-05-04 13:56 | 40.05053 | 3.91350 | 27548 ft | 506 kts | 35° |
| 2026-05-04 13:57 | 40.07858 | 3.94152 | 27807 ft | 508 kts | 35° |
| 2026-05-04 13:57 | 40.10673 | 3.96970 | 28072 ft | 511 kts | 35° |
| 2026-05-04 13:58 | 40.19161 | 4.05500 | 28816 ft | 518 kts | 36° |
| 2026-05-04 13:58 | 40.24910 | 4.11279 | 29245 ft | 523 kts | 36° |
| 2026-05-04 13:58 | 40.27807 | 4.14190 | 29460 ft | 525 kts | 36° |
| 2026-05-04 13:59 | 40.30712 | 4.17112 | 29680 ft | 527 kts | 36° |
| 2026-05-04 13:59 | 40.33632 | 4.20055 | 29855 ft | 529 kts | 36° |
| 2026-05-04 13:59 | 40.39430 | 4.25925 | 30357 ft | 529 kts | 36° |
| 2026-05-04 14:00 | 40.42341 | 4.28878 | 30622 ft | 529 kts | 36° |
| 2026-05-04 14:00 | 40.48345 | 4.34412 | 31105 ft | 525 kts | 25° |
| 2026-05-04 14:00 | 40.51649 | 4.36427 | 31364 ft | 519 kts | 16° |
| 2026-05-04 14:01 | 40.55088 | 4.37829 | 31615 ft | 513 kts | 7° |
| 2026-05-04 14:01 | 40.58573 | 4.38705 | 31882 ft | 509 kts | 4° |
| 2026-05-04 14:01 | 40.65530 | 4.40355 | 32410 ft | 507 kts | 4° |
| 2026-05-04 14:02 | 40.68962 | 4.41184 | 32671 ft | 507 kts | 4° |
| 2026-05-04 14:02 | 40.72443 | 4.42027 | 32936 ft | 506 kts | 4° |
| 2026-05-04 14:02 | 40.75892 | 4.42862 | 33208 ft | 505 kts | 4° |
| 2026-05-04 14:02 | 40.79357 | 4.43698 | 33480 ft | 503 kts | 4° |
| 2026-05-04 14:03 | 40.82795 | 4.44525 | 33760 ft | 503 kts | 4° |
| 2026-05-04 14:03 | 40.86248 | 4.45356 | 33966 ft | 503 kts | 4° |
| 2026-05-04 14:03 | 40.89695 | 4.46184 | 34165 ft | 503 kts | 4° |
| 2026-05-04 14:03 | 40.93142 | 4.47017 | 34379 ft | 503 kts | 4° |
| 2026-05-04 14:04 | 40.99977 | 4.48672 | 34831 ft | 501 kts | 4° |
| 2026-05-04 14:04 | 41.03406 | 4.49502 | 35051 ft | 500 kts | 4° |
| 2026-05-04 14:04 | 41.06829 | 4.50331 | 35261 ft | 500 kts | 4° |
| 2026-05-04 14:05 | 41.13689 | 4.51999 | 35598 ft | 500 kts | 4° |
| 2026-05-04 14:05 | 41.17123 | 4.52840 | 35790 ft | 499 kts | 4° |
| 2026-05-04 14:05 | 41.20530 | 4.53676 | 35929 ft | 499 kts | 4° |
| 2026-05-04 14:06 | 41.23896 | 4.54502 | 35947 ft | 498 kts | 4° |
| 2026-05-04 14:06 | 41.30745 | 4.56175 | 35954 ft | 498 kts | 4° |
| 2026-05-04 14:07 | 41.37537 | 4.57841 | 35946 ft | 497 kts | 4° |
| 2026-05-04 14:07 | 41.44356 | 4.59514 | 35960 ft | 496 kts | 4° |
| 2026-05-04 14:08 | 41.51106 | 4.61170 | 35956 ft | 495 kts | 4° |
| 2026-05-04 14:08 | 41.57892 | 4.62848 | 35953 ft | 495 kts | 4° |
| 2026-05-04 14:09 | 41.68046 | 4.65363 | 35955 ft | 496 kts | 4° |
| 2026-05-04 14:10 | 41.77833 | 4.70273 | 35965 ft | 510 kts | 27° |
| 2026-05-04 14:10 | 41.83889 | 4.75146 | 35968 ft | 509 kts | 27° |
| 2026-05-04 14:11 | 41.89979 | 4.80046 | 35985 ft | 509 kts | 27° |
| 2026-05-04 14:11 | 41.99101 | 4.87407 | 35980 ft | 509 kts | 27° |
| 2026-05-04 14:12 | 42.05139 | 4.92294 | 35984 ft | 509 kts | 27° |
| 2026-05-04 14:13 | 42.13229 | 4.98855 | 35979 ft | 508 kts | 27° |
| 2026-05-04 14:13 | 42.19277 | 5.03776 | 35985 ft | 508 kts | 27° |
| 2026-05-04 14:14 | 42.25326 | 5.08716 | 35985 ft | 507 kts | 27° |
| 2026-05-04 14:14 | 42.34363 | 5.16123 | 36009 ft | 509 kts | 27° |
| 2026-05-04 14:15 | 42.46452 | 5.26037 | 35987 ft | 507 kts | 27° |
| 2026-05-04 14:16 | 42.55472 | 5.33476 | 35992 ft | 508 kts | 27° |
| 2026-05-04 14:17 | 42.64533 | 5.40963 | 36005 ft | 508 kts | 27° |
| 2026-05-04 14:18 | 42.73567 | 5.48473 | 36011 ft | 507 kts | 27° |
| 2026-05-04 14:19 | 42.85607 | 5.58509 | 36007 ft | 507 kts | 27° |
| 2026-05-04 14:19 | 42.91599 | 5.63528 | 36036 ft | 507 kts | 27° |
| 2026-05-04 14:20 | 42.97622 | 5.68581 | 36038 ft | 506 kts | 27° |
| 2026-05-04 14:20 | 43.03632 | 5.73631 | 36027 ft | 506 kts | 27° |
| 2026-05-04 14:21 | 43.12607 | 5.81179 | 36064 ft | 505 kts | 27° |
| 2026-05-04 14:21 | 43.18607 | 5.86249 | 36059 ft | 505 kts | 27° |
| 2026-05-04 14:22 | 43.24556 | 5.91305 | 36061 ft | 505 kts | 27° |
| 2026-05-04 14:22 | 43.30517 | 5.96376 | 36076 ft | 505 kts | 27° |
| 2026-05-04 14:23 | 43.39767 | 6.03076 | 36058 ft | 493 kts | 11° |
| 2026-05-04 14:24 | 43.46397 | 6.04752 | 36050 ft | 478 kts | 356° |
| 2026-05-04 14:24 | 43.53011 | 6.05404 | 36060 ft | 479 kts | 357° |
| 2026-05-04 14:25 | 43.59679 | 6.06076 | 36049 ft | 479 kts | 357° |
| 2026-05-04 14:25 | 43.69617 | 6.07075 | 36056 ft | 479 kts | 358° |
| 2026-05-04 14:26 | 43.76270 | 6.08153 | 36051 ft | 487 kts | 8° |
| 2026-05-04 14:26 | 43.82652 | 6.11596 | 36049 ft | 496 kts | 21° |
| 2026-05-04 14:27 | 43.88857 | 6.15829 | 36070 ft | 495 kts | 21° |
| 2026-05-04 14:27 | 43.95041 | 6.20035 | 36073 ft | 495 kts | 21° |
| 2026-05-04 14:28 | 44.01180 | 6.24231 | 36080 ft | 495 kts | 21° |
| 2026-05-04 14:28 | 44.07358 | 6.28480 | 36095 ft | 494 kts | 22° |
| 2026-05-04 14:29 | 44.19698 | 6.36976 | 36075 ft | 493 kts | 22° |
| 2026-05-04 14:30 | 44.25855 | 6.41220 | 36095 ft | 493 kts | 22° |
| 2026-05-04 14:31 | 44.35062 | 6.47589 | 36071 ft | 492 kts | 22° |
| 2026-05-04 14:32 | 44.47285 | 6.56106 | 36129 ft | 491 kts | 22° |
| 2026-05-04 14:32 | 44.53406 | 6.60372 | 36131 ft | 490 kts | 22° |
| 2026-05-04 14:33 | 44.59478 | 6.64619 | 36136 ft | 489 kts | 22° |
| 2026-05-04 14:33 | 44.65582 | 6.68907 | 36141 ft | 489 kts | 22° |
| 2026-05-04 14:34 | 44.71671 | 6.73186 | 36144 ft | 489 kts | 22° |
| 2026-05-04 14:34 | 44.77813 | 6.77095 | 36139 ft | 483 kts | 12° |
| 2026-05-04 14:35 | 44.84326 | 6.78682 | 36148 ft | 468 kts | 355° |
| 2026-05-04 14:35 | 44.90810 | 6.78333 | 36154 ft | 465 kts | 351° |
| 2026-05-04 14:36 | 44.97277 | 6.77905 | 36153 ft | 464 kts | 351° |
| 2026-05-04 14:36 | 45.03712 | 6.77490 | 36162 ft | 465 kts | 352° |
| 2026-05-04 14:37 | 45.10186 | 6.77069 | 36159 ft | 465 kts | 352° |
| 2026-05-04 14:37 | 45.16675 | 6.76626 | 36147 ft | 465 kts | 352° |
| 2026-05-04 14:38 | 45.23117 | 6.76190 | 36153 ft | 465 kts | 352° |
| 2026-05-04 14:38 | 45.29595 | 6.75764 | 36146 ft | 465 kts | 352° |
| 2026-05-04 14:39 | 45.36063 | 6.75338 | 36137 ft | 465 kts | 352° |
| 2026-05-04 14:39 | 45.42542 | 6.74908 | 36144 ft | 466 kts | 352° |
| 2026-05-04 14:40 | 45.52265 | 6.74249 | 36134 ft | 465 kts | 352° |
| 2026-05-04 14:40 | 45.58732 | 6.73807 | 36132 ft | 466 kts | 352° |
| 2026-05-04 14:41 | 45.65181 | 6.73366 | 36093 ft | 465 kts | 352° |
| 2026-05-04 14:42 | 45.78134 | 6.72466 | 36104 ft | 466 kts | 353° |
| 2026-05-04 14:42 | 45.84616 | 6.72017 | 36085 ft | 466 kts | 353° |
| 2026-05-04 14:43 | 45.91092 | 6.71570 | 36089 ft | 466 kts | 352° |
| 2026-05-04 14:43 | 45.97552 | 6.71141 | 36074 ft | 467 kts | 353° |
| 2026-05-04 14:44 | 46.04058 | 6.70708 | 36056 ft | 468 kts | 353° |
| 2026-05-04 14:44 | 46.10539 | 6.70222 | 36045 ft | 467 kts | 349° |
| 2026-05-04 14:45 | 46.16800 | 6.68102 | 36042 ft | 458 kts | 336° |
| 2026-05-04 14:45 | 46.22833 | 6.65159 | 36034 ft | 459 kts | 336° |
| 2026-05-04 14:46 | 46.28891 | 6.62219 | 36039 ft | 460 kts | 336° |
| 2026-05-04 14:46 | 46.34980 | 6.59255 | 36039 ft | 460 kts | 336° |
| 2026-05-04 14:47 | 46.41055 | 6.56284 | 36044 ft | 461 kts | 336° |
| 2026-05-04 14:47 | 46.47130 | 6.53300 | 36040 ft | 461 kts | 336° |
| 2026-05-04 14:48 | 46.53177 | 6.50317 | 36044 ft | 462 kts | 336° |
| 2026-05-04 14:48 | 46.59282 | 6.47317 | 36062 ft | 462 kts | 336° |
| 2026-05-04 14:49 | 46.65397 | 6.44308 | 36041 ft | 463 kts | 336° |
| 2026-05-04 14:49 | 46.71470 | 6.41292 | 36035 ft | 463 kts | 336° |
| 2026-05-04 14:50 | 46.77597 | 6.38265 | 36035 ft | 465 kts | 336° |
| 2026-05-04 14:50 | 46.83701 | 6.35248 | 36024 ft | 465 kts | 336° |
| 2026-05-04 14:51 | 46.89849 | 6.32180 | 36024 ft | 465 kts | 336° |
| 2026-05-04 14:51 | 46.95959 | 6.29118 | 36019 ft | 465 kts | 336° |
| 2026-05-04 14:52 | 47.02097 | 6.26037 | 36021 ft | 466 kts | 336° |
| 2026-05-04 14:52 | 47.08129 | 6.22629 | 36009 ft | 461 kts | 329° |
| 2026-05-04 14:53 | 47.13894 | 6.18460 | 36028 ft | 462 kts | 329° |
| 2026-05-04 14:53 | 47.19639 | 6.14313 | 36020 ft | 463 kts | 329° |
| 2026-05-04 14:54 | 47.25403 | 6.10153 | 36023 ft | 464 kts | 329° |
| 2026-05-04 14:54 | 47.31229 | 6.05971 | 36015 ft | 466 kts | 333° |
| 2026-05-04 14:55 | 47.37555 | 6.03544 | 36003 ft | 475 kts | 351° |
| 2026-05-04 14:55 | 47.44161 | 6.03489 | 36004 ft | 478 kts | 358° |
| 2026-05-04 14:56 | 47.50831 | 6.03621 | 36007 ft | 479 kts | 358° |
| 2026-05-04 14:56 | 47.57482 | 6.03763 | 36006 ft | 480 kts | 358° |
| 2026-05-04 14:57 | 47.63041 | 6.03889 | 36007 ft | 480 kts | 358° |
| 2026-05-04 14:57 | 47.69737 | 6.04041 | 36019 ft | 480 kts | 358° |
| 2026-05-04 14:58 | 47.76405 | 6.04203 | 36025 ft | 481 kts | 358° |
| 2026-05-04 14:58 | 47.83110 | 6.04404 | 36020 ft | 481 kts | 358° |
| 2026-05-04 14:59 | 47.89815 | 6.04623 | 36026 ft | 481 kts | 359° |
| 2026-05-04 15:00 | 47.99843 | 6.04946 | 36022 ft | 481 kts | 359° |
| 2026-05-04 15:00 | 48.06545 | 6.05162 | 36019 ft | 481 kts | 358° |
| 2026-05-04 15:01 | 48.16539 | 6.05467 | 36020 ft | 481 kts | 359° |
| 2026-05-04 15:01 | 48.23244 | 6.05676 | 36016 ft | 481 kts | 359° |
| 2026-05-04 15:02 | 48.29939 | 6.05893 | 36020 ft | 480 kts | 359° |
| 2026-05-04 15:02 | 48.36595 | 6.06130 | 36018 ft | 480 kts | 359° |
| 2026-05-04 15:03 | 48.43292 | 6.06447 | 36014 ft | 480 kts | 360° |
| 2026-05-04 15:03 | 48.49970 | 6.06783 | 36017 ft | 480 kts | 360° |
| 2026-05-04 15:04 | 48.56594 | 6.07113 | 36002 ft | 479 kts | 360° |
| 2026-05-04 15:04 | 48.63288 | 6.07429 | 36026 ft | 480 kts | 359° |
| 2026-05-04 15:05 | 48.69983 | 6.07739 | 36012 ft | 480 kts | 359° |
| 2026-05-04 15:05 | 48.76627 | 6.08043 | 36007 ft | 480 kts | 359° |
| 2026-05-04 15:06 | 48.83310 | 6.08369 | 36003 ft | 480 kts | 359° |
| 2026-05-04 15:07 | 48.93355 | 6.08853 | 36011 ft | 480 kts | 359° |
| 2026-05-04 15:07 | 49.00013 | 6.09172 | 36008 ft | 480 kts | 359° |
| 2026-05-04 15:08 | 49.06704 | 6.09499 | 36001 ft | 480 kts | 359° |
| 2026-05-04 15:08 | 49.13404 | 6.09824 | 36000 ft | 481 kts | 359° |
| 2026-05-04 15:09 | 49.20099 | 6.10150 | 36007 ft | 480 kts | 360° |
| 2026-05-04 15:09 | 49.26686 | 6.10484 | 36006 ft | 472 kts | 359° |
| 2026-05-04 15:10 | 49.36575 | 6.10959 | 36012 ft | 474 kts | 359° |
| 2026-05-04 15:11 | 49.46441 | 6.11447 | 36003 ft | 474 kts | 359° |
| 2026-05-04 15:11 | 49.53044 | 6.11741 | 36004 ft | 474 kts | 359° |
| 2026-05-04 15:12 | 49.59613 | 6.11978 | 36005 ft | 473 kts | 359° |
| 2026-05-04 15:12 | 49.66188 | 6.12208 | 36006 ft | 472 kts | 359° |
| 2026-05-04 15:13 | 49.72723 | 6.12452 | 36006 ft | 472 kts | 359° |
| 2026-05-04 15:13 | 49.79308 | 6.12717 | 35989 ft | 473 kts | 359° |
| 2026-05-04 15:14 | 49.85902 | 6.13623 | 35987 ft | 478 kts | 11° |
| 2026-05-04 15:14 | 49.92158 | 6.17199 | 35989 ft | 480 kts | 24° |
| 2026-05-04 15:15 | 49.98199 | 6.21476 | 35975 ft | 481 kts | 24° |
| 2026-05-04 15:15 | 50.04265 | 6.25880 | 35985 ft | 481 kts | 24° |
| 2026-05-04 15:16 | 50.13368 | 6.32612 | 35991 ft | 482 kts | 25° |
| 2026-05-04 15:17 | 50.22440 | 6.39305 | 35986 ft | 482 kts | 24° |
| 2026-05-04 15:17 | 50.31548 | 6.46027 | 35963 ft | 482 kts | 24° |
| 2026-05-04 15:18 | 50.37475 | 6.50869 | 35969 ft | 483 kts | 33° |
| 2026-05-04 15:19 | 50.45873 | 6.59626 | 35975 ft | 483 kts | 33° |
| 2026-05-04 15:19 | 50.54290 | 6.68397 | 35985 ft | 483 kts | 33° |
| 2026-05-04 15:20 | 50.59856 | 6.74230 | 35989 ft | 483 kts | 33° |
| 2026-05-04 15:20 | 50.65458 | 6.80111 | 35998 ft | 483 kts | 32° |
| 2026-05-04 15:21 | 50.71530 | 6.84565 | 35692 ft | 480 kts | 14° |
| 2026-05-04 15:21 | 50.78041 | 6.85772 | 35198 ft | 472 kts | 354° |
| 2026-05-04 15:22 | 50.81349 | 6.85524 | 34544 ft | 475 kts | 353° |
| 2026-05-04 15:22 | 50.84678 | 6.85250 | 33614 ft | 480 kts | 353° |
| 2026-05-04 15:22 | 50.91390 | 6.84666 | 31883 ft | 483 kts | 353° |
| 2026-05-04 15:23 | 50.94672 | 6.84245 | 31340 ft | 476 kts | 352° |
| 2026-05-04 15:23 | 50.97982 | 6.83975 | 30696 ft | 476 kts | 358° |
| 2026-05-04 15:23 | 51.01285 | 6.84101 | 30038 ft | 473 kts | 359° |
| 2026-05-04 15:23 | 51.04567 | 6.84596 | 29343 ft | 471 kts | 10° |
| 2026-05-04 15:24 | 51.10572 | 6.88457 | 28114 ft | 464 kts | 33° |
| 2026-05-04 15:24 | 51.15259 | 6.95286 | 26938 ft | 456 kts | 54° |
| 2026-05-04 15:25 | 51.17145 | 6.99252 | 26363 ft | 453 kts | 54° |
| 2026-05-04 15:25 | 51.19031 | 7.03257 | 25790 ft | 449 kts | 54° |
| 2026-05-04 15:25 | 51.20890 | 7.07228 | 25228 ft | 445 kts | 54° |
| 2026-05-04 15:26 | 51.24577 | 7.15118 | 24151 ft | 437 kts | 54° |
| 2026-05-04 15:26 | 51.26386 | 7.18994 | 23636 ft | 433 kts | 54° |
| 2026-05-04 15:26 | 51.29932 | 7.26609 | 22603 ft | 424 kts | 54° |
| 2026-05-04 15:27 | 51.31689 | 7.30387 | 22111 ft | 420 kts | 54° |
| 2026-05-04 15:27 | 51.35249 | 7.37710 | 21158 ft | 414 kts | 46° |
| 2026-05-04 15:28 | 51.39863 | 7.42950 | 20194 ft | 408 kts | 24° |
| 2026-05-04 15:28 | 51.42523 | 7.44470 | 19705 ft | 405 kts | 16° |
| 2026-05-04 15:28 | 51.47895 | 7.47136 | 18709 ft | 401 kts | 17° |
| 2026-05-04 15:29 | 51.50550 | 7.48463 | 18202 ft | 400 kts | 17° |
| 2026-05-04 15:30 | 51.61028 | 7.53721 | 16198 ft | 387 kts | 17° |
| 2026-05-04 15:30 | 51.68659 | 7.57564 | 14765 ft | 379 kts | 17° |
| 2026-05-04 15:31 | 51.73483 | 7.60779 | 13737 ft | 376 kts | 27° |
| 2026-05-04 15:31 | 51.75791 | 7.62680 | 13246 ft | 373 kts | 27° |
| 2026-05-04 15:32 | 51.82758 | 7.65952 | 12509 ft | 340 kts | 348° |
| 2026-05-04 15:32 | 51.86704 | 7.62328 | 11635 ft | 328 kts | 308° |
| 2026-05-04 15:33 | 51.88508 | 7.55898 | 11317 ft | 304 kts | 285° |
| 2026-05-04 15:34 | 51.90297 | 7.46443 | 10356 ft | 295 kts | 285° |
| 2026-05-04 15:34 | 51.90903 | 7.43208 | 9741 ft | 302 kts | 285° |
| 2026-05-04 15:34 | 51.92141 | 7.36595 | 8424 ft | 303 kts | 285° |
| 2026-05-04 15:35 | 51.93324 | 7.30244 | 7170 ft | 289 kts | 285° |
| 2026-05-04 15:35 | 51.93896 | 7.27151 | 6562 ft | 283 kts | 285° |
| 2026-05-04 15:35 | 51.94458 | 7.24114 | 5928 ft | 279 kts | 285° |
| 2026-05-04 15:36 | 51.95956 | 7.18509 | 4834 ft | 270 kts | 312° |
| 2026-05-04 15:36 | 51.97461 | 7.16843 | 4584 ft | 256 kts | 338° |
| 2026-05-04 15:36 | 51.99139 | 7.16314 | 4403 ft | 240 kts | 0° |
| 2026-05-04 15:37 | 52.00753 | 7.16785 | 3993 ft | 235 kts | 22° |
| 2026-05-04 15:37 | 52.02122 | 7.18146 | 3560 ft | 233 kts | 44° |
| 2026-05-04 15:37 | 52.03093 | 7.20235 | 3394 ft | 229 kts | 65° |
| 2026-05-04 15:37 | 52.03649 | 7.22592 | 3253 ft | 223 kts | 72° |
| 2026-05-04 15:38 | 52.04158 | 7.24953 | 3145 ft | 218 kts | 72° |
| 2026-05-04 15:38 | 52.04650 | 7.27231 | 3058 ft | 207 kts | 71° |
| 2026-05-04 15:38 | 52.05111 | 7.29364 | 2985 ft | 190 kts | 72° |
| 2026-05-04 15:38 | 52.05528 | 7.31296 | 2989 ft | 172 kts | 72° |
| 2026-05-04 15:39 | 52.05907 | 7.33060 | 3001 ft | 160 kts | 71° |
| 2026-05-04 15:39 | 52.06271 | 7.34752 | 3002 ft | 158 kts | 71° |
| 2026-05-04 15:39 | 52.06990 | 7.38098 | 2998 ft | 157 kts | 71° |
| 2026-05-04 15:40 | 52.07348 | 7.39769 | 3008 ft | 157 kts | 71° |
| 2026-05-04 15:40 | 52.07708 | 7.41445 | 3008 ft | 155 kts | 71° |
| 2026-05-04 15:40 | 52.08065 | 7.43114 | 3010 ft | 156 kts | 71° |
| 2026-05-04 15:40 | 52.08425 | 7.44796 | 2933 ft | 158 kts | 72° |
| 2026-05-04 15:41 | 52.08785 | 7.46478 | 2777 ft | 156 kts | 71° |
| 2026-05-04 15:41 | 52.09129 | 7.48086 | 2586 ft | 154 kts | 71° |
| 2026-05-04 15:41 | 52.09479 | 7.49723 | 2377 ft | 153 kts | 71° |
| 2026-05-04 15:41 | 52.09818 | 7.51315 | 2203 ft | 149 kts | 71° |
| 2026-05-04 15:42 | 52.10157 | 7.52901 | 2003 ft | 148 kts | 71° |
| 2026-05-04 15:42 | 52.10380 | 7.53951 | 1868 ft | 147 kts | 71° |
| 2026-05-04 15:42 | 52.10715 | 7.55524 | 1669 ft | 146 kts | 71° |
| 2026-05-04 15:42 | 52.11047 | 7.57085 | 1465 ft | 146 kts | 71° |
| 2026-05-04 15:43 | 52.11380 | 7.58649 | 1274 ft | 145 kts | 71° |
| 2026-05-04 15:43 | 52.11710 | 7.60203 | 1075 ft | 145 kts | 71° |
| 2026-05-04 15:43 | 52.12039 | 7.61754 | 877 ft | 145 kts | 70° |
| 2026-05-04 15:43 | 52.12366 | 7.63294 | 684 ft | 144 kts | 70° |
| 2026-05-04 15:44 | 52.12691 | 7.64829 | 491 ft | 143 kts | 69° |
| 2026-05-04 15:44 | 52.13012 | 7.66343 | 306 ft | 142 kts | 69° |
| 2026-05-04 15:44 | 52.13329 | 7.67840 | 168 ft | 133 kts | 71° |
| 2026-05-04 15:44 | 52.13552 | 7.68902 | 167 ft | 56 kts | 70° |
| 2026-05-04 15:45 | 52.13616 | 7.69194 | 170 ft | 22 kts | 73° |
| 2026-05-04 15:45 | 52.13686 | 7.69516 | 169 ft | 32 kts | 71° |
| 2026-05-04 15:45 | 52.13753 | 7.69841 | 168 ft | 31 kts | 71° |
| 2026-05-04 15:45 | 52.13722 | 7.70022 | 167 ft | 14 kts | 152° |
| 2026-05-04 15:46 | 52.13635 | 7.70008 | 167 ft | 13 kts | 212° |
| 2026-05-04 15:46 | 52.13588 | 7.69893 | 167 ft | 12 kts | 251° |
| 2026-05-04 15:46 | 52.13560 | 7.69762 | 167 ft | 12 kts | 251° |
| 2026-05-04 15:46 | 52.13531 | 7.69628 | 168 ft | 13 kts | 251° |
| 2026-05-04 15:47 | 52.13503 | 7.69491 | 167 ft | 13 kts | 251° |
| 2026-05-04 15:47 | 52.13474 | 7.69356 | 168 ft | 13 kts | 251° |
| 2026-05-04 15:47 | 52.13429 | 7.69236 | 167 ft | 13 kts | 201° |
| 2026-05-04 15:47 | 52.13348 | 7.69268 | 167 ft | 12 kts | 162° |
| 2026-05-04 15:48 | 52.13271 | 7.69310 | 167 ft | 10 kts | 161° |
| 2026-05-04 15:48 | 52.13237 | 7.69395 | 167 ft | 7 kts | 134° |
| 2026-05-04 15:48 | 52.13170 | 7.69374 | 167 ft | 0 kts | 196° |